Time;durP1;ratioP1;P1;durP2;ratioP2;P2;SDS_P1;SDS_P2;PMS_P1;PMS_P2;Temp;Humidity;BMP_temperature;BMP_pressure;BME280_temperature;BME280_humidity;BME280_pressure;Samples;Min_cycle;Max_cycle;Signal;HPM_P1;HPM_P2
2022/09/15 00:00:51;;;;;;;31.83;16.85;;;;;;;12.03;100.00;100565.91;5086300;28;20039;-67
2022/09/15 00:03:17;;;;;;;32.42;17.70;;;;;;;12.06;100.00;100571.19;5083615;28;20036;-67
2022/09/15 00:05:43;;;;;;;31.08;17.38;;;;;;;12.04;100.00;100562.34;5085539;28;20364;-67
2022/09/15 00:08:11;;;;;;;30.35;17.63;;;;;;;12.04;100.00;100562.34;5084779;28;20031;-67
2022/09/15 00:11:06;;;;;;;31.58;17.45;;;;;;;12.03;100.00;100560.59;5084356;28;20470;-67
2022/09/15 00:13:32;;;;;;;32.40;18.15;;;;;;;12.00;100.00;100557.97;5041249;28;20590;-67
2022/09/15 00:15:58;;;;;;;33.78;19.13;;;;;;;11.96;100.00;100558.88;5043666;28;20025;-66
2022/09/15 00:18:24;;;;;;;30.73;18.13;;;;;;;11.91;100.00;100560.63;5040773;28;20041;-67
2022/09/15 00:20:49;;;;;;;33.28;18.83;;;;;;;11.91;100.00;100564.19;5043765;28;20025;-66
2022/09/15 00:23:16;;;;;;;33.83;19.30;;;;;;;11.91;100.00;100560.63;5041057;28;20143;-67
2022/09/15 00:25:47;;;;;;;31.88;19.10;;;;;;;11.89;100.00;100563.28;5041667;28;20034;-68
2022/09/15 00:28:14;;;;;;;34.53;19.43;;;;;;;11.89;100.00;100562.44;5041283;28;20116;-66
2022/09/15 00:30:48;;;;;;;33.67;19.90;;;;;;;11.85;100.00;100556.25;5042159;28;20280;-67
2022/09/15 00:33:15;;;;;;;32.05;19.30;;;;;;;11.88;100.00;100550.06;5040880;28;20488;-67
2022/09/15 00:35:43;;;;;;;33.90;20.58;;;;;;;11.91;100.00;100550.03;5042317;28;20451;-67
2022/09/15 00:38:09;;;;;;;32.80;20.35;;;;;;;11.92;100.00;100547.38;5041934;28;20116;-67
2022/09/15 00:40:48;;;;;;;34.70;20.65;;;;;;;11.95;100.00;100550.03;5041329;28;20033;-66
2022/09/15 00:43:17;;;;;;;34.47;20.83;;;;;;;11.99;100.00;100543.84;5041143;28;20041;-67
2022/09/15 00:45:43;;;;;;;34.67;20.90;;;;;;;12.05;100.00;100545.56;5042485;28;20022;-67
2022/09/15 00:48:14;;;;;;;34.95;21.10;;;;;;;12.07;100.00;100551.72;5041758;28;20024;-67
2022/09/15 00:50:48;;;;;;;34.88;20.70;;;;;;;12.10;100.00;100554.38;5076447;28;20040;-67
2022/09/15 00:53:14;;;;;;;35.13;21.50;;;;;;;12.15;100.00;100549.91;5084783;28;20142;-67
2022/09/15 00:55:44;;;;;;;35.03;21.38;;;;;;;12.19;100.00;100549.00;5083482;28;20063;-67
2022/09/15 00:58:50;;;;;;;35.00;20.63;;;;;;;12.24;100.00;100556.06;5083882;28;20029;-67
2022/09/15 01:01:16;;;;;;;34.30;20.95;;;;;;;12.28;100.00;100555.16;5000177;28;20048;-67
2022/09/15 01:03:42;;;;;;;35.65;21.95;;;;;;;12.27;100.00;100546.28;5002127;28;20030;-68
2022/09/15 01:06:20;;;;;;;34.47;21.00;;;;;;;12.30;100.00;100550.69;5002215;28;20042;-65
2022/09/15 01:09:04;;;;;;;33.97;20.50;;;;;;;12.32;100.00;100560.41;5002932;28;20448;-69
2022/09/15 01:11:30;;;;;;;32.13;20.23;;;;;;;12.38;100.00;100551.53;5003622;28;20038;-66
2022/09/15 01:13:56;;;;;;;36.00;21.63;;;;;;;12.37;100.00;100555.94;5003340;28;20030;-64
2022/09/15 01:16:40;;;;;;;33.90;21.58;;;;;;;12.43;100.00;100555.00;4999953;28;20026;-67
2022/09/15 01:19:26;;;;;;;34.25;21.48;;;;;;;12.47;100.00;100556.75;5003282;28;20375;-65
2022/09/15 01:21:54;;;;;;;32.75;20.13;;;;;;;12.47;100.00;100562.06;5004094;28;20117;-67
2022/09/15 01:24:41;;;;;;;32.97;20.85;;;;;;;12.48;100.00;100544.38;5003033;28;20038;-69
2022/09/15 01:27:18;;;;;;;33.00;19.95;;;;;;;12.48;100.00;100545.25;5003301;28;20114;-68
2022/09/15 01:29:53;;;;;;;33.30;20.20;;;;;;;12.54;100.00;100549.66;5001022;28;20113;-67
2022/09/15 01:35:42;;;;;;;31.50;19.23;;;;;;;12.56;100.00;100545.19;4999883;28;20109;-67
2022/09/15 01:38:47;;;;;;;31.25;19.55;;;;;;;12.53;100.00;100548.75;5064903;28;20036;-69
2022/09/15 01:41:15;;;;;;;33.05;19.50;;;;;;;12.47;100.00;100545.28;5019201;28;20040;-66
2022/09/15 01:43:48;;;;;;;31.55;19.15;;;;;;;12.45;100.00;100553.25;5021126;28;20121;-68
2022/09/15 01:46:15;;;;;;;31.02;19.58;;;;;;;12.39;100.00;100542.66;5020582;28;20045;-68
2022/09/15 01:48:42;;;;;;;33.15;19.85;;;;;;;12.31;100.00;100549.81;5023148;28;20036;-66
2022/09/15 01:51:08;;;;;;;33.10;19.92;;;;;;;12.24;100.00;100548.97;5023081;28;20033;-63
2022/09/15 01:53:34;;;;;;;34.13;21.02;;;;;;;12.19;100.00;100556.09;5020183;28;20022;-68
2022/09/15 01:56:05;;;;;;;35.47;21.38;;;;;;;12.12;100.00;100554.38;5022219;28;20059;-68
2022/09/15 01:58:31;;;;;;;33.88;21.25;;;;;;;12.06;100.00;100544.69;5022919;28;20037;-66
2022/09/15 02:01:15;;;;;;;35.88;22.13;;;;;;;12.04;100.00;100551.75;5002776;28;20038;-68
2022/09/15 02:03:50;;;;;;;34.83;21.98;;;;;;;12.00;100.00;100556.19;5020569;28;20053;-70
2022/09/15 02:06:23;;;;;;;35.53;21.90;;;;;;;11.99;100.00;100556.22;5021455;28;20045;-69
2022/09/15 02:08:56;;;;;;;34.65;22.67;;;;;;;11.97;100.00;100550.03;5019173;28;20476;-70
2022/09/15 02:11:26;;;;;;;37.08;22.98;;;;;;;11.98;100.00;100551.78;5022794;28;20060;-68
2022/09/15 02:14:09;;;;;;;37.15;23.83;;;;;;;12.00;100.00;100550.91;5022381;28;20034;-68
2022/09/15 02:16:35;;;;;;;38.00;23.80;;;;;;;12.05;100.00;100550.00;5020067;28;20155;-69
2022/09/15 02:19:30;;;;;;;38.17;23.83;;;;;;;12.04;100.00;100554.41;5079186;28;20122;-67
2022/09/15 02:22:24;;;;;;;36.25;23.83;;;;;;;12.06;100.00;100547.34;5075880;28;20098;-69
2022/09/15 02:25:04;;;;;;;36.38;22.95;;;;;;;12.04;100.00;100546.44;5084268;28;20107;-67
2022/09/15 02:27:36;;;;;;;35.38;23.83;;;;;;;12.03;100.00;100545.59;5081326;28;20475;-68
2022/09/15 02:30:06;;;;;;;35.87;23.00;;;;;;;11.99;100.00;100548.28;5083408;28;20107;-67
2022/09/15 02:32:36;;;;;;;34.28;22.83;;;;;;;11.95;100.00;100547.38;5080920;28;20047;-69
2022/09/15 02:35:06;;;;;;;36.88;23.50;;;;;;;11.92;100.00;100550.03;5083759;28;20367;-68
2022/09/15 02:37:34;;;;;;;34.20;23.20;;;;;;;11.92;100.00;100543.88;5081204;28;20020;-67
2022/09/15 02:40:00;;;;;;;35.80;22.75;;;;;;;11.86;100.00;100537.69;5083740;28;20040;-67
2022/09/15 02:42:28;;;;;;;35.78;23.73;;;;;;;11.78;100.00;100547.47;5080631;28;20035;-67
2022/09/15 02:44:54;;;;;;;36.33;23.35;;;;;;;11.71;100.00;100550.13;5084145;28;20028;-67
2022/09/15 02:47:19;;;;;;;35.75;23.67;;;;;;;11.65;100.00;100546.66;5081343;28;20379;-67
2022/09/15 02:49:45;;;;;;;37.83;23.83;;;;;;;11.59;100.00;100551.97;5087175;28;20443;-67
2022/09/15 02:52:10;;;;;;;36.03;23.27;;;;;;;11.55;100.00;100552.88;5086049;28;20106;-67
2022/09/15 02:54:35;;;;;;;34.45;22.52;;;;;;;11.52;100.00;100550.25;5085398;28;20109;-67
2022/09/15 02:57:01;;;;;;;37.22;23.83;;;;;;;11.44;100.00;100549.38;5087773;28;20024;-66
2022/09/15 03:00:11;;;;;;;38.13;24.45;;;;;;;11.39;100.00;100544.13;5084400;28;20024;-66
2022/09/15 03:02:12;;;;;;;36.55;23.33;;;;;;;11.33;100.00;100554.72;5085660;28;20028;-67
2022/09/15 03:04:38;;;;;;;36.83;24.60;;;;;;;11.34;100.00;100549.44;5085575;28;20389;-68
2022/09/15 03:07:03;;;;;;;38.58;25.10;;;;;;;11.28;100.00;100553.84;5087262;28;20024;-66
2022/09/15 03:09:28;;;;;;;37.97;25.42;;;;;;;11.28;100.00;100554.72;5084425;28;20360;-66
2022/09/15 03:11:53;;;;;;;41.25;27.70;;;;;;;11.30;100.00;100563.56;5087231;28;20351;-67
2022/09/15 03:14:19;;;;;;;39.97;26.92;;;;;;;11.27;100.00;100560.91;5084954;28;20063;-67
2022/09/15 03:16:44;;;;;;;41.92;28.48;;;;;;;11.28;100.00;100570.59;5086611;28;20026;-67
2022/09/15 03:19:11;;;;;;;42.28;29.17;;;;;;;11.26;100.00;100571.50;5085964;28;20095;-67
2022/09/15 03:21:36;;;;;;;42.13;28.90;;;;;;;11.23;100.00;100568.88;5085325;28;20031;-68
2022/09/15 03:24:02;;;;;;;42.60;29.95;;;;;;;11.26;100.00;100568.88;5086623;28;20028;-68
2022/09/15 03:26:28;;;;;;;45.65;30.27;;;;;;;11.29;100.00;100567.06;5083958;28;20383;-69
2022/09/15 03:28:53;;;;;;;43.53;29.95;;;;;;;11.35;100.00;100576.75;5087567;28;20039;-68
2022/09/15 03:31:18;;;;;;;43.67;30.35;;;;;;;11.37;100.00;100580.28;5084413;28;20067;-69
2022/09/15 03:33:44;;;;;;;42.33;30.10;;;;;;;11.45;100.00;100574.97;5085879;28;20625;-70
2022/09/15 03:36:09;;;;;;;41.90;30.02;;;;;;;11.50;100.00;100582.03;5085704;28;20024;-69
2022/09/15 03:38:34;;;;;;;44.22;29.88;;;;;;;11.55;100.00;100584.63;5084504;28;20086;-66
2022/09/15 03:41:01;;;;;;;42.00;29.98;;;;;;;11.61;100.00;100589.03;5086832;28;20105;-67
2022/09/15 03:43:28;;;;;;;40.92;29.45;;;;;;;11.63;100.00;100587.25;5083259;28;20032;-68
2022/09/15 03:45:54;;;;;;;41.38;28.45;;;;;;;11.69;100.00;100596.06;5083712;28;20418;-68
2022/09/15 03:48:20;;;;;;;41.30;28.88;;;;;;;11.73;100.00;100588.97;5086536;28;20111;-66
2022/09/15 03:50:46;;;;;;;40.72;28.35;;;;;;;11.77;100.00;100598.66;5084270;28;20103;-70
2022/09/15 03:53:11;;;;;;;38.75;27.65;;;;;;;11.74;100.00;100592.53;5085246;28;20029;-67
2022/09/15 03:55:36;;;;;;;38.15;26.67;;;;;;;11.72;100.00;100587.19;5084746;28;20028;-68
2022/09/15 03:58:02;;;;;;;41.75;26.90;;;;;;;11.66;100.00;100590.78;5083555;28;20029;-70
2022/09/15 04:00:28;;;;;;;38.88;26.70;;;;;;;11.65;100.00;100588.16;5085512;28;20028;-66
2022/09/15 04:02:53;;;;;;;36.28;25.10;;;;;;;11.65;100.00;100585.50;5083182;28;20027;-66
2022/09/15 04:05:18;;;;;;;37.15;25.10;;;;;;;11.59;100.00;100585.50;5085904;28;20028;-69
2022/09/15 04:07:44;;;;;;;37.67;26.08;;;;;;;11.63;100.00;100581.97;5084163;28;20566;-65
2022/09/15 04:10:10;;;;;;;36.53;25.38;;;;;;;11.61;100.00;100578.44;5084557;28;20032;-68
2022/09/15 04:12:35;;;;;;;37.08;25.15;;;;;;;11.60;100.00;100582.84;5085417;28;20078;-66
2022/09/15 04:15:01;;;;;;;35.53;25.38;;;;;;;11.63;100.00;100581.97;5083196;28;20029;-69
2022/09/15 04:17:27;;;;;;;36.22;24.92;;;;;;;11.62;100.00;100570.50;5086459;28;20498;-67
2022/09/15 04:19:52;;;;;;;35.90;24.17;;;;;;;11.65;100.00;100574.91;5083146;28;20103;-66
2022/09/15 04:22:18;;;;;;;34.70;23.80;;;;;;;11.63;100.00;100574.88;5084471;28;20048;-65
2022/09/15 04:24:43;;;;;;;34.65;24.48;;;;;;;11.66;100.00;100581.94;5083892;28;20024;-68
2022/09/15 04:27:09;;;;;;;33.85;23.88;;;;;;;11.68;100.00;100580.19;5084006;28;20033;-67
2022/09/15 04:29:34;;;;;;;37.50;23.98;;;;;;;11.71;100.00;100580.16;5085672;28;20020;-68
2022/09/15 04:32:00;;;;;;;34.55;23.80;;;;;;;11.78;100.00;100578.34;5082326;28;20446;-67
2022/09/15 04:34:25;;;;;;;35.55;23.73;;;;;;;11.79;100.00;100577.47;5086157;28;20031;-68
2022/09/15 04:36:50;;;;;;;32.80;22.30;;;;;;;11.82;100.00;100573.06;5083008;28;20020;-67
2022/09/15 04:39:15;;;;;;;33.85;22.20;;;;;;;11.86;100.00;100580.06;5084591;28;20078;-68
2022/09/15 04:41:41;;;;;;;34.92;22.75;;;;;;;11.91;100.00;100579.19;5084054;28;20069;-67
2022/09/15 04:44:06;;;;;;;32.25;22.65;;;;;;;11.93;100.00;100577.41;5083504;28;20021;-67
2022/09/15 04:46:31;;;;;;;33.03;21.90;;;;;;;11.96;100.00;100585.38;5085093;28;20077;-68
2022/09/15 04:48:57;;;;;;;34.55;22.50;;;;;;;11.96;100.00;100580.94;5082598;28;20024;-64
2022/09/15 04:51:23;;;;;;;32.75;21.40;;;;;;;12.00;100.00;100587.13;5085451;28;20024;-66
2022/09/15 04:53:49;;;;;;;33.65;22.30;;;;;;;11.97;100.00;100587.13;5082856;28;20058;-67
2022/09/15 04:56:17;;;;;;;32.40;21.88;;;;;;;11.96;100.00;100586.25;5084309;28;20024;-67
2022/09/15 04:58:45;;;;;;;34.10;22.23;;;;;;;11.95;100.00;100584.47;5083620;28;20020;-67
2022/09/15 05:01:16;;;;;;;32.65;21.63;;;;;;;11.92;100.00;100592.41;5083517;28;20082;-67
2022/09/15 05:03:42;;;;;;;34.67;22.35;;;;;;;11.89;100.00;100586.25;5083787;28;20031;-68
2022/09/15 05:06:10;;;;;;;32.40;22.00;;;;;;;11.89;100.00;100583.63;5083241;28;20025;-67
2022/09/15 05:08:35;;;;;;;34.00;22.13;;;;;;;11.88;100.00;100587.13;5084357;28;20031;-68
2022/09/15 05:11:04;;;;;;;32.92;22.30;;;;;;;11.90;100.00;100583.59;5081616;28;20028;-68
2022/09/15 05:13:29;;;;;;;33.60;22.90;;;;;;;11.84;100.00;100576.56;5085580;28;20020;-67
2022/09/15 05:15:55;;;;;;;32.13;22.48;;;;;;;11.82;100.00;100577.44;5081576;28;20433;-67
2022/09/15 05:18:20;;;;;;;33.63;22.60;;;;;;;11.81;100.00;100567.75;5084478;28;20028;-65
2022/09/15 05:20:46;;;;;;;33.08;22.30;;;;;;;11.83;100.00;100568.63;5082891;28;20020;-67
2022/09/15 05:23:11;;;;;;;34.10;22.70;;;;;;;11.88;100.00;100572.13;5083274;28;20025;-65
2022/09/15 05:25:37;;;;;;;34.53;22.77;;;;;;;11.90;100.00;100575.66;5084376;28;20103;-66
2022/09/15 05:28:03;;;;;;;33.30;22.20;;;;;;;11.88;100.00;100573.91;5082026;28;20021;-65
2022/09/15 05:30:29;;;;;;;35.22;22.40;;;;;;;11.91;100.00;100587.13;5084751;28;20378;-66
2022/09/15 05:32:55;;;;;;;34.15;22.52;;;;;;;11.91;100.00;100590.66;5081412;28;20094;-66
2022/09/15 05:35:20;;;;;;;32.70;21.65;;;;;;;11.99;100.00;100580.06;5084223;28;20482;-68
2022/09/15 05:37:45;;;;;;;31.88;21.52;;;;;;;12.03;100.00;100590.63;5082402;28;20023;-64
2022/09/15 05:40:11;;;;;;;33.05;21.80;;;;;;;12.06;100.00;100591.47;5083204;28;20027;-69
2022/09/15 05:42:36;;;;;;;33.40;22.05;;;;;;;12.10;100.00;100596.78;5083562;28;20023;-66
2022/09/15 05:45:02;;;;;;;32.88;22.05;;;;;;;12.16;100.00;100609.13;5081495;28;20056;-64
2022/09/15 05:47:27;;;;;;;32.15;21.50;;;;;;;12.18;100.00;100604.66;5084599;28;20043;-69
2022/09/15 05:49:53;;;;;;;32.45;21.80;;;;;;;12.19;100.00;100603.78;5081466;28;20020;-68
2022/09/15 05:52:19;;;;;;;31.73;21.67;;;;;;;12.21;100.00;100610.81;5083555;28;20035;-65
2022/09/15 05:54:44;;;;;;;31.98;21.85;;;;;;;12.27;100.00;100617.00;5082665;28;20020;-67
2022/09/15 05:57:09;;;;;;;32.58;21.88;;;;;;;12.29;100.00;100612.53;5080717;28;20059;-67
2022/09/15 05:59:38;;;;;;;33.03;22.13;;;;;;;12.30;100.00;100611.66;5086901;28;20020;-64
2022/09/15 06:02:03;;;;;;;33.25;21.33;;;;;;;12.30;100.00;100615.19;5088634;28;20024;-64
2022/09/15 06:04:28;;;;;;;31.90;21.70;;;;;;;12.30;100.00;100620.47;5084106;28;20040;-65
2022/09/15 06:06:54;;;;;;;32.83;21.55;;;;;;;12.33;100.00;100619.59;5083875;28;20024;-64
2022/09/15 06:09:19;;;;;;;32.80;20.80;;;;;;;12.36;100.00;100624.88;5084813;28;20024;-64
2022/09/15 06:11:44;;;;;;;33.42;21.77;;;;;;;12.44;100.00;100625.72;5086890;28;20024;-63
2022/09/15 06:14:12;;;;;;;31.90;21.08;;;;;;;12.52;100.00;100636.25;5087679;28;20497;-64
2022/09/15 06:16:37;;;;;;;32.53;20.98;;;;;;;12.56;100.00;100630.91;5087419;28;20377;-64
2022/09/15 06:19:03;;;;;;;31.83;21.08;;;;;;;12.62;100.00;100632.63;5086558;28;20018;-66
2022/09/15 06:21:30;;;;;;;31.25;20.48;;;;;;;12.67;100.00;100632.63;5084407;28;20069;-66
2022/09/15 06:23:58;;;;;;;32.22;21.20;;;;;;;12.73;100.00;100633.44;5090477;28;20021;-64
2022/09/15 06:26:24;;;;;;;32.53;21.23;;;;;;;12.84;100.00;100630.72;5089943;28;20040;-63
2022/09/15 06:28:52;;;;;;;32.30;20.73;;;;;;;12.95;100.00;100643.88;5088681;28;20026;-65
2022/09/15 06:31:19;;;;;;;29.80;21.02;;;;;;;13.04;100.00;100641.13;5088515;28;20054;-63
2022/09/15 06:33:52;;;;;;;31.73;20.95;;;;;;;13.13;100.00;100642.81;5092128;28;20461;-64
2022/09/15 06:36:20;;;;;;;31.85;21.27;;;;;;;13.18;100.00;100646.31;5087516;28;20036;-64
2022/09/15 06:38:47;;;;;;;32.75;20.65;;;;;;;13.20;100.00;100647.19;5086512;28;20472;-64
2022/09/15 06:41:13;;;;;;;30.90;21.20;;;;;;;13.27;100.00;100649.81;5089397;28;20059;-66
2022/09/15 06:43:38;;;;;;;30.38;20.85;;;;;;;13.24;100.00;100648.06;5093005;28;20064;-65
2022/09/15 06:46:13;;;;;;;30.30;21.55;;;;;;;13.19;100.00;100653.41;5090600;28;20554;-67
2022/09/15 06:48:39;;;;;;;30.00;21.05;;;;;;;13.15;100.00;100656.97;5084837;28;20032;-64
2022/09/15 06:51:06;;;;;;;30.75;21.48;;;;;;;13.16;100.00;100658.72;5091679;28;20024;-69
2022/09/15 06:53:33;;;;;;;30.80;22.42;;;;;;;13.14;100.00;100660.50;5091538;28;20028;-63
2022/09/15 06:56:04;;;;;;;31.45;21.77;;;;;;;13.19;100.00;100666.69;5087553;28;20025;-66
2022/09/15 06:58:30;;;;;;;31.70;21.60;;;;;;;13.28;100.00;100660.41;5087003;28;20032;-65
2022/09/15 07:01:04;;;;;;;31.98;22.02;;;;;;;13.39;100.00;100665.63;5090933;28;20040;-65
2022/09/15 07:03:29;;;;;;;30.00;21.10;;;;;;;13.49;100.00;100669.94;5086939;28;20470;-66
2022/09/15 07:05:55;;;;;;;33.47;21.67;;;;;;;13.64;100.00;100676.00;5092761;28;20033;-66
2022/09/15 07:08:20;;;;;;;28.70;20.63;;;;;;;13.73;100.00;100682.09;5090163;28;20035;-64
2022/09/15 07:10:46;;;;;;;28.90;19.77;;;;;;;13.79;100.00;100683.81;5086173;28;20016;-65
2022/09/15 07:13:11;;;;;;;29.90;20.05;;;;;;;13.88;100.00;100683.69;5087162;28;20582;-66
2022/09/15 07:15:37;;;;;;;29.85;19.35;;;;;;;13.97;100.00;100688.00;5086252;28;20037;-68
2022/09/15 07:18:03;;;;;;;30.38;19.88;;;;;;;14.11;100.00;100693.13;5088905;28;20074;-65
2022/09/15 07:20:29;;;;;;;27.73;19.17;;;;;;;14.20;100.00;100685.06;5089908;28;20056;-66
2022/09/15 07:22:54;;;;;;;28.05;18.20;;;;;;;14.24;100.00;100699.16;5090207;28;20027;-69
2022/09/15 07:25:19;;;;;;;29.77;18.95;;;;;;;14.36;100.00;100692.81;5088455;28;20024;-68
2022/09/15 07:27:45;;;;;;;27.73;17.98;;;;;;;14.33;100.00;100698.19;5089110;28;20364;-65
2022/09/15 07:30:12;;;;;;;28.45;18.38;;;;;;;14.40;100.00;100689.22;5089405;28;20020;-65
2022/09/15 07:32:37;;;;;;;28.30;18.55;;;;;;;14.46;100.00;100684.69;5089415;28;20134;-65
2022/09/15 07:35:03;;;;;;;26.83;17.23;;;;;;;14.50;100.00;100692.63;5086720;28;20526;-69
2022/09/15 07:37:28;;;;;;;26.42;17.55;;;;;;;14.54;100.00;100692.56;5088679;28;20042;-68
2022/09/15 07:39:54;;;;;;;27.55;16.35;;;;;;;14.62;100.00;100695.13;5086573;28;20027;-66
2022/09/15 07:42:19;;;;;;;26.63;17.50;;;;;;;14.72;100.00;100695.88;5088011;28;20077;-68
2022/09/15 07:44:44;;;;;;;28.33;16.85;;;;;;;14.82;100.00;100698.41;5089428;28;20052;-67
2022/09/15 07:47:09;;;;;;;27.27;16.45;;;;;;;14.89;100.00;100699.16;5083536;28;20098;-68
2022/09/15 07:49:35;;;;;;;26.50;16.67;;;;;;;14.90;100.00;100692.94;5088447;28;20020;-67
2022/09/15 07:52:01;;;;;;;26.27;15.10;;;;;;;14.94;100.00;100699.97;5089485;28;20024;-67
2022/09/15 07:54:26;;;;;;;26.13;14.43;;;;;;;14.97;100.00;100710.56;5090004;28;20020;-63
2022/09/15 07:56:52;;;;;;;25.70;14.13;;;;;;;14.95;100.00;100708.84;5088028;28;20440;-65
2022/09/15 07:59:17;;;;;;;24.90;14.15;;;;;;;14.84;100.00;100706.34;5090153;28;20024;-64
2022/09/15 08:01:42;;;;;;;26.08;13.48;;;;;;;14.76;100.00;100716.22;5087259;28;20032;-67
2022/09/15 08:04:08;;;;;;;24.30;13.75;;;;;;;14.81;100.00;100714.38;5090053;28;20032;-65
2022/09/15 08:06:33;;;;;;;25.10;14.07;;;;;;;14.89;100.00;100720.44;5085507;28;20028;-68
2022/09/15 08:09:00;;;;;;;25.35;13.50;;;;;;;14.98;100.00;100716.75;5086343;28;20038;-66
2022/09/15 08:11:26;;;;;;;24.15;13.68;;;;;;;15.02;100.00;100730.91;5087110;28;20485;-65
2022/09/15 08:13:52;;;;;;;25.10;13.45;;;;;;;15.04;100.00;100724.66;5082761;28;20020;-67
2022/09/15 08:16:20;;;;;;;24.08;13.50;;;;;;;15.10;100.00;100726.34;5082893;28;20031;-66
2022/09/15 08:18:45;;;;;;;24.33;12.82;;;;;;;15.14;100.00;100715.63;5084642;28;20020;-67
2022/09/15 08:21:14;;;;;;;23.55;12.20;;;;;;;15.31;100.00;100725.13;5088934;28;20024;-64
2022/09/15 08:23:40;;;;;;;23.98;12.75;;;;;;;15.39;100.00;100731.19;5087840;28;20031;-68
2022/09/15 08:26:07;;;;;;;23.83;12.18;;;;;;;15.50;100.00;100734.53;5086133;28;20028;-67
2022/09/15 08:28:32;;;;;;;25.80;12.45;;;;;;;15.64;100.00;100730.72;5082640;28;20056;-65
2022/09/15 08:31:06;;;;;;;22.95;11.75;;;;;;;15.65;100.00;100743.16;5085898;28;20099;-68
2022/09/15 08:33:32;;;;;;;24.02;12.68;;;;;;;15.65;100.00;100748.47;5082517;28;20044;-66
2022/09/15 08:36:04;;;;;;;22.85;12.00;;;;;;;15.59;100.00;100748.59;5086001;28;20492;-64
2022/09/15 08:38:29;;;;;;;24.58;12.50;;;;;;;15.46;100.00;100747.94;5082294;28;20039;-67
2022/09/15 08:41:05;;;;;;;24.50;12.68;;;;;;;15.36;100.00;100746.34;5084275;28;20016;-64
2022/09/15 08:43:38;;;;;;;24.45;11.70;;;;;;;15.24;100.00;100750.94;5082321;28;20486;-65
2022/09/15 08:46:06;;;;;;;22.67;12.05;;;;;;;15.24;100.00;100750.94;5081801;28;20020;-67
2022/09/15 08:48:40;;;;;;;24.15;12.25;;;;;;;15.32;100.00;100746.38;5081139;28;20017;-67
2022/09/15 08:51:14;;;;;;;23.90;12.50;;;;;;;15.50;100.00;100746.97;5083891;28;20028;-73
2022/09/15 08:53:48;;;;;;;23.90;12.77;;;;;;;15.60;100.00;100750.38;5091343;28;20024;-69
2022/09/15 08:56:16;;;;;;;25.23;12.27;;;;;;;15.56;100.00;100754.00;5085412;28;20031;-66
2022/09/15 08:58:43;;;;;;;23.90;12.07;;;;;;;15.56;100.00;100760.19;5085996;28;20461;-69
2022/09/15 09:01:27;;;;;;;23.00;12.20;;;;;;;15.58;100.00;100758.38;5090033;28;20485;-72
2022/09/15 09:04:01;;;;;;;23.38;12.27;;;;;;;15.73;100.00;100767.88;5085239;28;20492;-65
2022/09/15 09:06:51;;;;;;;23.40;11.38;;;;;;;15.81;100.00;100770.44;5079784;28;20023;-63
2022/09/15 09:09:44;;;;;;;23.10;11.95;;;;;;;15.95;100.00;100773.72;5079457;28;20509;-63
2022/09/15 09:12:25;;;;;;;24.60;12.20;;;;;;;16.15;100.00;100785.78;5089648;28;20055;-63
2022/09/15 09:15:18;;;;;;;23.48;11.60;;;;;;;16.41;100.00;100782.59;5083766;28;20067;-64
2022/09/15 09:17:43;;;;;;;;;;;;;;;16.66;100.00;100788.28;5087349;28;20078;-65
2022/09/15 09:20:35;;;;;;;24.50;11.37;;;;;;;16.43;100.00;100791.44;5089439;28;19908;-64
2022/09/15 09:23:04;;;;;;;22.30;11.10;;;;;;;16.46;100.00;100798.50;5083603;28;20293;-65
2022/09/15 09:25:30;;;;;;;25.10;12.13;;;;;;;16.48;100.00;100792.22;5085938;28;20093;-63
2022/09/15 09:27:57;;;;;;;21.15;9.18;;;;;;;16.49;100.00;100785.09;5086412;28;20478;-65
2022/09/15 09:30:24;;;;;;;21.13;8.57;;;;;;;16.48;100.00;100789.53;5082044;28;20032;-65
2022/09/15 09:33:17;;;;;;;20.73;8.27;;;;;;;16.55;100.00;100782.31;5084438;28;20071;-64
2022/09/15 09:35:47;;;;;;;20.77;8.20;;;;;;;16.62;100.00;100791.06;5085329;28;20040;-65
2022/09/15 09:38:24;;;;;;;20.95;8.00;;;;;;;16.63;100.00;100793.69;5085846;28;20028;-63
2022/09/15 09:40:49;;;;;;;19.45;7.40;;;;;;;16.53;100.00;100786.81;5085989;28;20035;-63
2022/09/15 09:43:15;;;;;;;20.20;7.20;;;;;;;16.40;100.00;100786.19;5087679;28;20108;-64
2022/09/15 09:45:40;;;;;;;22.73;8.10;;;;;;;16.28;100.00;100789.97;5086379;28;20055;-64
2022/09/15 09:48:19;;;;;;;22.60;8.18;;;;;;;16.23;100.00;100789.19;5085850;28;20028;-63
2022/09/15 09:50:45;;;;;;;21.08;7.97;;;;;;;16.21;100.00;100783.88;5088147;28;20024;-63
2022/09/15 09:53:32;;;;;;;20.65;8.85;;;;;;;16.26;100.00;100793.56;5085881;28;20031;-66
2022/09/15 09:56:16;;;;;;;20.15;9.02;;;;;;;16.17;100.00;100790.19;5085731;28;20040;-68
2022/09/15 09:58:43;;;;;;;21.58;9.45;;;;;;;16.06;100.00;100792.16;5084802;28;20471;-69
2022/09/15 10:01:20;;;;;;;21.40;9.55;;;;;;;16.02;100.00;100794.03;5087801;28;20036;-69
2022/09/15 10:03:45;;;;;;;22.50;10.25;;;;;;;16.09;100.00;100785.91;5081519;28;20047;-68
2022/09/15 10:06:13;;;;;;;25.33;11.43;;;;;;;16.15;100.00;100780.44;5083510;28;20024;-68
2022/09/15 10:09:02;;;;;;;23.02;10.43;;;;;;;16.11;100.00;100784.97;5080792;28;20103;-68
2022/09/15 10:11:51;;;;;;;23.40;10.75;;;;;;;16.15;100.00;100794.66;5081095;28;20040;-68
2022/09/15 10:14:25;;;;;;;21.90;10.02;;;;;;;16.13;100.00;100803.59;5083059;28;20028;-68
2022/09/15 10:17:11;;;;;;;21.58;9.50;;;;;;;16.15;100.00;100804.44;5082584;28;20047;-65
2022/09/15 10:19:47;;;;;;;22.42;8.82;;;;;;;16.16;100.00;100801.78;5078305;28;20043;-68
2022/09/15 10:22:23;;;;;;;21.10;7.80;;;;;;;16.23;100.00;100794.50;5081357;28;20070;-66
2022/09/15 10:24:52;;;;;;;20.33;6.88;;;;;;;16.35;100.00;100794.28;5078462;28;20355;-68
2022/09/15 10:27:32;;;;;;;16.73;5.30;;;;;;;16.43;100.00;100793.25;5081168;28;20107;-65
2022/09/15 10:30:13;;;;;;;17.55;4.50;;;;;;;16.45;100.00;100786.06;5081948;28;20123;-64
2022/09/15 10:32:40;;;;;;;14.95;3.53;;;;;;;16.43;100.00;100785.25;5080608;28;20037;-67
2022/09/15 10:35:19;;;;;;;13.43;3.58;;;;;;;16.49;100.00;100785.97;5080536;28;20044;-66
2022/09/15 10:38:07;;;;;;;15.13;3.70;;;;;;;16.54;100.00;100783.19;5081522;28;20024;-68
2022/09/15 10:40:43;;;;;;;14.07;3.25;;;;;;;16.58;100.00;100789.38;5080867;28;20029;-68
2022/09/15 10:43:31;;;;;;;17.17;3.80;;;;;;;16.59;100.00;100791.13;5084164;28;20028;-64
2022/09/15 10:46:26;;;;;;;14.75;3.40;;;;;;;16.69;100.00;100803.38;5082945;28;20074;-65
2022/09/15 10:49:21;;;;;;;14.90;3.50;;;;;;;16.63;100.00;100803.47;5082386;28;20020;-68
2022/09/15 10:52:11;;;;;;;14.90;3.30;;;;;;;16.68;100.00;100814.94;5018310;28;20514;-68
2022/09/15 10:54:55;;;;;;;14.60;2.90;;;;;;;16.74;100.00;100813.00;5018792;28;20030;-67
2022/09/15 10:57:47;;;;;;;12.35;2.80;;;;;;;16.59;100.00;100812.47;5016209;28;20492;-70
2022/09/15 11:00:21;;;;;;;11.05;2.78;;;;;;;16.50;100.00;100821.56;5015225;28;20049;-63
2022/09/15 11:03:02;;;;;;;7.63;2.20;;;;;;;16.33;100.00;100820.09;5012786;28;20036;-64
2022/09/15 11:05:39;;;;;;;5.03;1.90;;;;;;;16.39;100.00;100811.09;5017184;28;20041;-64
2022/09/15 11:08:37;;;;;;;7.22;2.03;;;;;;;16.73;100.00;100816.59;5016385;28;20084;-68
2022/09/15 11:11:10;;;;;;;8.93;1.90;;;;;;;17.32;100.00;100812.63;5018371;28;20042;-66
2022/09/15 11:13:50;;;;;;;10.52;2.10;;;;;;;18.66;100.00;100818.03;5018072;28;20048;-65
2022/09/15 11:16:53;;;;;;;10.63;2.08;;;;;;;19.22;100.00;100809.19;5016882;28;20045;-66
2022/09/15 11:19:37;;;;;;;12.07;2.30;;;;;;;19.65;100.00;100805.94;5016280;28;20033;-68